Lethbridge, Alberta

3:00 PM MDT on August 27, 2014 (GMT -0600)
Lethbridge Airport | Change Station
CLOSE
Current Station
Airport
Location: Lethbridge Airport,
Elevation: 3048 ft
Nearby Weather Stations

Elev 3048 ft 49.63 °N, 112.79 °W | Updated 1 hour ago

Partly Cloudy
Partly Cloudy
84 °F
Feels Like 84 °F
N
20
Wind Variable Wind from West
Gusts 28 mph

Today
High -- | Low -- °F
--% Chance of Precip.
Yesterday
High -- | Low -- °F
Precip. -- in
6:39 AM 8:24 PM
Waxing Crescent, 5% visible
Pressure 29.89 in
Visibility 40.0 miles
Clouds Few 7500 ft
Dew Point 48 °F
Humidity 29%
Rainfall 0.00 in
Snow Depth Not available.
UV 7 out of 12
Pollen Not available.
Air Quality Not available.
Flu Activity Not available.
METAR CYQL 272000Z 26017G24KT 40SM FEW075 29/09 A2994 RMK CU2 SLP122 DENSITY ALT 5200FT

More Conditions Fewer Conditions

Pressure 29.89 in
Visibility 40.0 miles
Clouds Few 7500 ft
Dew Point 48 °F
Humidity 29%
Rainfall 0.00 in
Snow Depth Not available.
UV 7 out of 12
Pollen Not available.
Air Quality Not available.
Flu Activity Not available.
METAR CYQL 272000Z 26017G24KT 40SM FEW075 29/09 A2994 RMK CU2 SLP122 DENSITY ALT 5200FT

More Conditions Fewer Conditions

10-Day Weather Forecast

Almanac

Astronomy

Aug. 27, 2014 Rise Set
Actual Time 6:39 AM MDT 8:24 PM MDT
Civil Twilight 6:05 AM MDT 8:58 PM MDT
Nautical Twilight 5:23 AM MDT 9:40 PM MDT
Astronomical Twilight 4:37 AM MDT 10:25 PM MDT
Moon 8:54 AM MDT 9:01 PM MDT
Length of Visible Light 14h 52m
Length of Day
13h 45m
Tomorrow will be 3m 32s shorter.
Waxing Crescent, 5% of the Moon is Illuminated
Today
Waxing Crescent
Sep 2
First Quarter
Sep 8
Full
Sep 15
Last Quarter
Sep 24
New

Today's Extremes

Country Highs Country Lows

Community

WunderPhotos

Upload Photos

1,747,785 photos uploaded!

Nearby

Snow Depth

Not available.

Earthquake Activity

City Distance Mag. Time & Date
No recent earthquake activity has been reported nearby.
Minimum magnitude displayed is 2.5.

Coastal Water Temperatures

Place Temperature
No Stations Reporting

Nearby Weather Stations